createdAt,value
2023-04-19T00:04:01.283Z,8.70
2023-04-19T00:09:07.495Z,8.80
2023-04-19T00:14:15.530Z,8.80
2023-04-19T00:19:23.082Z,8.70
2023-04-19T00:24:29.462Z,8.70
2023-04-19T00:29:35.836Z,8.60
2023-04-19T00:34:41.925Z,8.60
2023-04-19T00:39:47.841Z,8.50
2023-04-19T00:44:53.558Z,8.50
2023-04-19T00:50:00.211Z,8.50
2023-04-19T00:55:07.558Z,8.50
2023-04-19T01:00:13.867Z,8.50
2023-04-19T01:05:20.134Z,8.50
2023-04-19T01:10:26.873Z,8.40
2023-04-19T01:15:33.596Z,8.50
2023-04-19T01:20:39.585Z,8.40
2023-04-19T01:25:46.779Z,8.40
2023-04-19T01:30:54.138Z,8.40
2023-04-19T01:36:00.272Z,8.30
2023-04-19T01:41:06.749Z,8.20
2023-04-19T01:46:12.638Z,8.00
2023-04-19T01:51:18.597Z,8.00
2023-04-19T01:56:24.411Z,7.90
2023-04-19T02:01:31.161Z,8.00
2023-04-19T02:06:36.850Z,8.00
2023-04-19T02:11:44.017Z,8.00
2023-04-19T02:16:50.537Z,8.00
2023-04-19T02:21:58.460Z,8.00
2023-04-19T02:27:04.380Z,8.10
2023-04-19T02:32:10.022Z,8.00
2023-04-19T02:37:16.135Z,8.10
2023-04-19T02:42:21.666Z,8.10
2023-04-19T02:47:27.593Z,7.90
2023-04-19T02:52:34.029Z,8.00
2023-04-19T02:57:40.011Z,7.90
2023-04-19T03:02:45.919Z,7.80
2023-04-19T03:07:51.620Z,7.70
2023-04-19T03:12:57.187Z,7.60
2023-04-19T03:18:03.369Z,7.60
2023-04-19T03:23:09.086Z,7.60
2023-04-19T03:28:15.234Z,7.60
2023-04-19T03:33:20.690Z,7.60
2023-04-19T03:38:26.345Z,7.50
2023-04-19T03:43:34.779Z,7.40
2023-04-19T03:48:41.410Z,7.30
2023-04-19T03:53:47.181Z,7.10
2023-04-19T03:58:53.509Z,7.00
2023-04-19T04:04:01.118Z,6.90
2023-04-19T04:09:07.720Z,6.80
2023-04-19T04:14:13.660Z,6.90
2023-04-19T04:19:21.965Z,6.80
2023-04-19T04:24:28.376Z,6.70
2023-04-19T04:29:34.445Z,6.80
2023-04-19T04:34:41.830Z,6.80
2023-04-19T04:39:48.690Z,6.80
2023-04-19T04:44:56.104Z,6.40
2023-04-19T04:50:02.726Z,6.40
2023-04-19T04:55:09.223Z,6.30
2023-04-19T05:00:15.675Z,6.20
2023-04-19T05:05:21.839Z,6.20
2023-04-19T05:10:29.871Z,6.40
2023-04-19T05:15:36.494Z,6.30
2023-04-19T05:20:43.927Z,6.50
2023-04-19T05:25:50.261Z,6.70
2023-04-19T05:30:56.011Z,6.80
2023-04-19T05:36:01.834Z,7.40
2023-04-19T05:41:08.590Z,8.20
2023-04-19T05:46:14.546Z,8.00
2023-04-19T05:51:20.525Z,8.00
2023-04-19T05:56:26.968Z,7.30
2023-04-19T06:01:33.696Z,7.40
2023-04-19T06:06:39.902Z,6.90
2023-04-19T06:11:50.909Z,6.80
2023-04-19T06:16:53.887Z,6.50
2023-04-19T06:22:00.109Z,6.40
2023-04-19T06:27:06.506Z,6.10
2023-04-19T06:32:13.214Z,6.20
2023-04-19T06:37:19.758Z,6.20
2023-04-19T06:42:26.144Z,6.10
2023-04-19T06:47:35.703Z,6.80
2023-04-19T06:52:42.123Z,7.50
2023-04-19T06:57:49.338Z,7.20
2023-04-19T07:02:55.611Z,7.90
2023-04-19T07:08:02.002Z,7.20
2023-04-19T07:13:08.746Z,6.60
2023-04-19T07:18:15.922Z,7.00
2023-04-19T07:23:21.988Z,7.10
2023-04-19T07:28:32.693Z,7.90
2023-04-19T07:33:38.484Z,8.00
2023-04-19T07:38:45.130Z,7.70
2023-04-19T07:43:50.845Z,9.10
2023-04-19T07:48:57.313Z,8.70
2023-04-19T07:54:03.728Z,8.70
2023-04-19T07:59:11.375Z,9.30
2023-04-19T08:04:21.087Z,8.50
2023-04-19T08:09:29.123Z,8.90
2023-04-19T08:14:47.562Z,7.40
2023-04-19T08:19:43.328Z,7.40
2023-04-19T08:24:52.515Z,7.80
2023-04-19T08:29:58.267Z,8.70
2023-04-19T08:35:05.182Z,8.80
2023-04-19T08:40:11.971Z,8.00
2023-04-19T08:45:27.903Z,9.70
2023-04-19T08:50:33.517Z,9.10
2023-04-19T08:55:34.310Z,9.60
2023-04-19T09:00:41.604Z,8.50
2023-04-19T09:05:47.580Z,9.70
2023-04-19T09:10:58.813Z,9.60
2023-04-19T09:16:09.551Z,8.70
2023-04-19T09:21:18.785Z,8.90
2023-04-19T09:26:29.639Z,8.30
2023-04-19T09:31:50.670Z,9.00
2023-04-19T09:36:44.628Z,8.70
2023-04-19T09:41:56.757Z,8.00
2023-04-19T09:47:03.502Z,7.10
2023-04-19T09:52:12.906Z,7.40
2023-04-19T09:57:18.986Z,7.50
2023-04-19T10:02:26.115Z,7.10
2023-04-19T10:07:33.200Z,6.00
2023-04-19T10:13:06.995Z,5.70
2023-04-19T10:17:47.326Z,5.50
2023-04-19T10:22:53.568Z,5.80
2023-04-19T10:27:59.596Z,6.20
2023-04-19T10:33:09.840Z,6.20
2023-04-19T10:38:16.969Z,6.70
2023-04-19T10:43:23.969Z,6.90
2023-04-19T10:48:36.470Z,6.80
2023-04-19T10:53:53.053Z,7.50
2023-04-19T10:59:10.648Z,7.60
2023-04-19T11:04:27.548Z,7.60
2023-04-19T11:09:38.836Z,7.50
2023-04-19T11:14:46.398Z,7.50
2023-04-19T11:20:03.440Z,7.50
2023-04-19T11:25:19.928Z,8.20
2023-04-19T11:30:32.423Z,7.70
2023-04-19T11:35:39.577Z,7.90
2023-04-19T11:40:45.289Z,6.90
2023-04-19T11:45:52.128Z,7.40
2023-04-19T11:51:00.139Z,6.80
2023-04-19T11:56:10.016Z,6.70
2023-04-19T12:01:21.392Z,6.60
2023-04-19T12:06:32.715Z,6.80
2023-04-19T12:11:52.132Z,6.70
2023-04-19T12:17:12.272Z,6.80
2023-04-19T12:22:24.235Z,6.20
2023-04-19T12:27:31.211Z,5.00
2023-04-19T12:32:36.890Z,4.40
2023-04-19T12:37:43.239Z,4.70
2023-04-19T12:42:50.038Z,5.30
2023-04-19T12:47:56.429Z,5.50
2023-04-19T12:53:02.272Z,5.60
2023-04-19T12:58:09.152Z,5.60
2023-04-19T13:03:15.673Z,5.20
2023-04-19T13:08:30.952Z,5.70
2023-04-19T13:13:30.450Z,5.70
2023-04-19T13:18:36.789Z,5.50
2023-04-19T13:23:45.941Z,5.60
2023-04-19T13:28:52.075Z,5.50
2023-04-19T13:34:00.034Z,5.20
2023-04-19T13:39:08.276Z,5.20
2023-04-19T13:44:14.002Z,5.30
2023-04-19T13:49:23.219Z,5.20
2023-04-19T13:54:29.258Z,5.00
2023-04-19T13:59:35.173Z,5.10
2023-04-19T14:04:41.320Z,5.20
2023-04-19T14:09:48.580Z,5.30
2023-04-19T14:14:54.358Z,5.00
2023-04-19T14:20:00.868Z,5.30
2023-04-19T14:25:07.340Z,5.10
2023-04-19T14:30:13.832Z,4.80
2023-04-19T14:35:21.842Z,5.00
2023-04-19T14:40:27.487Z,5.00
2023-04-19T14:45:35.017Z,4.90
2023-04-19T14:50:42.066Z,5.10
2023-04-19T14:55:48.326Z,5.10
2023-04-19T15:00:54.975Z,5.40
2023-04-19T15:06:03.351Z,5.40
2023-04-19T15:11:09.695Z,5.50
2023-04-19T15:16:16.074Z,5.60
2023-04-19T15:21:24.864Z,5.70
2023-04-19T15:26:30.754Z,5.60
2023-04-19T15:31:36.848Z,5.50
2023-04-19T15:36:43.653Z,5.80
2023-04-19T15:41:49.670Z,5.70
2023-04-19T15:46:56.990Z,5.30
2023-04-19T15:52:04.106Z,5.10
2023-04-19T15:57:10.319Z,5.10
2023-04-19T16:02:17.629Z,5.50
2023-04-19T16:07:23.324Z,5.10
2023-04-19T16:12:29.216Z,4.90
2023-04-19T16:17:35.406Z,4.90
2023-04-19T16:22:41.610Z,4.80
2023-04-19T16:27:48.712Z,4.60
2023-04-19T16:32:58.098Z,4.90
2023-04-19T16:38:04.538Z,5.10
2023-04-19T16:43:14.147Z,5.00
2023-04-19T16:48:21.317Z,4.90
2023-04-19T16:53:27.359Z,4.70
2023-04-19T16:58:33.188Z,5.20
2023-04-19T17:03:41.208Z,4.80
2023-04-19T17:08:47.320Z,4.60
2023-04-19T17:13:55.959Z,5.00
2023-04-19T17:19:01.558Z,5.10
2023-04-19T17:24:07.362Z,5.20
2023-04-19T17:29:13.259Z,5.50
2023-04-19T17:34:19.824Z,5.50
2023-04-19T17:39:27.094Z,5.70
2023-04-19T17:44:33.972Z,5.40
2023-04-19T17:49:39.633Z,5.40
2023-04-19T17:54:47.122Z,5.40
2023-04-19T17:59:53.480Z,5.40
2023-04-19T18:05:00.247Z,5.00
2023-04-19T18:10:06.968Z,5.40
2023-04-19T18:15:13.728Z,5.10
2023-04-19T18:20:21.236Z,5.30
2023-04-19T18:25:30.326Z,5.10
2023-04-19T18:30:36.711Z,4.80
2023-04-19T18:35:43.046Z,4.80
2023-04-19T18:40:48.660Z,4.70
2023-04-19T18:45:57.725Z,4.60
2023-04-19T18:51:04.610Z,4.60
2023-04-19T18:56:10.905Z,4.60
2023-04-19T19:01:16.735Z,4.60
2023-04-19T19:06:23.780Z,4.40
2023-04-19T19:16:50.866Z,4.40
2023-04-19T19:21:48.523Z,4.30
2023-04-19T19:26:55.237Z,4.50
2023-04-19T19:32:03.024Z,4.60
2023-04-19T19:37:09.708Z,4.20
2023-04-19T19:42:19.799Z,4.00
2023-04-19T19:47:28.316Z,3.80
2023-04-19T19:52:36.036Z,3.80
2023-04-19T20:02:55.975Z,3.50
2023-04-19T20:08:10.532Z,3.40
2023-04-19T20:13:18.078Z,3.60
2023-04-19T20:18:25.556Z,3.40
2023-04-19T20:23:32.012Z,3.20
2023-04-19T20:28:38.480Z,3.10
2023-04-19T20:33:46.218Z,3.10
2023-04-19T20:38:53.448Z,3.10
2023-04-19T20:44:00.173Z,2.70
2023-04-19T20:49:06.255Z,2.30
2023-04-19T20:54:12.160Z,2.30
2023-04-19T20:59:19.493Z,2.10
2023-04-19T21:04:25.122Z,2.40
2023-04-19T21:09:31.702Z,2.20
2023-04-19T21:14:38.439Z,2.00
2023-04-19T21:19:44.299Z,1.70
2023-04-19T21:24:50.595Z,1.80
2023-04-19T21:29:57.305Z,1.60
2023-04-19T21:35:04.520Z,1.50
2023-04-19T21:40:11.428Z,1.60
2023-04-19T21:45:17.845Z,1.60
2023-04-19T21:50:24.435Z,1.30
2023-04-19T21:55:31.926Z,1.50
2023-04-19T22:00:37.873Z,1.30
2023-04-19T22:05:45.620Z,1.50
2023-04-19T22:10:51.590Z,1.50
2023-04-19T22:15:57.690Z,1.30
2023-04-19T22:21:04.706Z,1.50
2023-04-19T22:26:11.083Z,1.80
2023-04-19T22:31:17.203Z,1.80
2023-04-19T22:36:22.999Z,1.70
2023-04-19T22:41:28.913Z,1.40
2023-04-19T22:46:36.756Z,1.20
2023-04-19T22:51:45.199Z,1.10
2023-04-19T22:56:51.321Z,1.00
2023-04-19T23:01:57.507Z,1.30
2023-04-19T23:07:04.662Z,1.20
2023-04-19T23:12:11.374Z,1.00
2023-04-19T23:17:18.223Z,0.90
2023-04-19T23:22:23.847Z,1.00
2023-04-19T23:27:30.880Z,1.10
2023-04-19T23:32:36.767Z,1.00
2023-04-19T23:37:43.305Z,0.90
2023-04-19T23:42:49.623Z,0.50
2023-04-19T23:47:56.193Z,0.40
2023-04-19T23:53:03.068Z,0.90
2023-04-19T23:58:10.965Z,0.60
